sensor_id;sensor_type;location;lat;lon;timestamp;temperature;humidity
9542;DHT22;4809;48.224;8.572;2023-07-29T00:01:40;16.30;99.90
9542;DHT22;4809;48.224;8.572;2023-07-29T00:04:06;16.30;99.90
9542;DHT22;4809;48.224;8.572;2023-07-29T00:06:34;16.30;99.90
9542;DHT22;4809;48.224;8.572;2023-07-29T00:08:59;16.30;99.90
9542;DHT22;4809;48.224;8.572;2023-07-29T00:11:25;16.30;99.90
9542;DHT22;4809;48.224;8.572;2023-07-29T00:13:51;16.30;99.90
9542;DHT22;4809;48.224;8.572;2023-07-29T00:16:18;16.30;99.90
9542;DHT22;4809;48.224;8.572;2023-07-29T00:18:48;16.30;99.90
9542;DHT22;4809;48.224;8.572;2023-07-29T00:21:13;16.30;99.90
9542;DHT22;4809;48.224;8.572;2023-07-29T00:23:39;16.30;99.90
9542;DHT22;4809;48.224;8.572;2023-07-29T00:26:05;16.30;99.90
9542;DHT22;4809;48.224;8.572;2023-07-29T00:28:30;16.30;99.90
9542;DHT22;4809;48.224;8.572;2023-07-29T00:30:56;16.30;99.90
9542;DHT22;4809;48.224;8.572;2023-07-29T00:33:22;16.20;99.90
9542;DHT22;4809;48.224;8.572;2023-07-29T00:35:47;16.20;99.90
9542;DHT22;4809;48.224;8.572;2023-07-29T00:38:13;16.10;99.90
9542;DHT22;4809;48.224;8.572;2023-07-29T00:40:39;16.10;99.90
9542;DHT22;4809;48.224;8.572;2023-07-29T00:43:05;16.10;99.90
9542;DHT22;4809;48.224;8.572;2023-07-29T00:45:32;16.10;99.90
9542;DHT22;4809;48.224;8.572;2023-07-29T00:47:58;16.10;99.90
9542;DHT22;4809;48.224;8.572;2023-07-29T00:50:24;16.10;99.90
9542;DHT22;4809;48.224;8.572;2023-07-29T00:52:53;16.10;99.90
9542;DHT22;4809;48.224;8.572;2023-07-29T00:55:19;16.10;99.90
9542;DHT22;4809;48.224;8.572;2023-07-29T00:57:45;16.10;99.90
9542;DHT22;4809;48.224;8.572;2023-07-29T01:00:14;16.10;99.90
9542;DHT22;4809;48.224;8.572;2023-07-29T01:02:42;16.10;99.90
9542;DHT22;4809;48.224;8.572;2023-07-29T01:05:08;16.00;99.90
9542;DHT22;4809;48.224;8.572;2023-07-29T01:13:09;16.00;99.90
9542;DHT22;4809;48.224;8.572;2023-07-29T01:15:48;16.00;99.90
9542;DHT22;4809;48.224;8.572;2023-07-29T01:18:26;16.10;99.90
9542;DHT22;4809;48.224;8.572;2023-07-29T01:20:55;16.00;99.90
9542;DHT22;4809;48.224;8.572;2023-07-29T01:23:25;16.00;99.90
9542;DHT22;4809;48.224;8.572;2023-07-29T01:25:51;16.00;99.90
9542;DHT22;4809;48.224;8.572;2023-07-29T01:28:16;16.00;99.90
9542;DHT22;4809;48.224;8.572;2023-07-29T01:30:43;16.00;99.90
9542;DHT22;4809;48.224;8.572;2023-07-29T01:33:10;16.10;99.90
9542;DHT22;4809;48.224;8.572;2023-07-29T01:35:50;16.00;99.90
9542;DHT22;4809;48.224;8.572;2023-07-29T01:38:24;16.00;99.90
9542;DHT22;4809;48.224;8.572;2023-07-29T01:40:53;16.00;99.90
9542;DHT22;4809;48.224;8.572;2023-07-29T01:43:20;16.00;99.90
9542;DHT22;4809;48.224;8.572;2023-07-29T01:45:49;16.00;99.90
9542;DHT22;4809;48.224;8.572;2023-07-29T01:48:15;15.90;99.90
9542;DHT22;4809;48.224;8.572;2023-07-29T01:50:40;15.90;99.90
9542;DHT22;4809;48.224;8.572;2023-07-29T01:53:06;15.90;99.90
9542;DHT22;4809;48.224;8.572;2023-07-29T01:55:31;16.00;99.90
9542;DHT22;4809;48.224;8.572;2023-07-29T01:57:57;15.90;99.90
9542;DHT22;4809;48.224;8.572;2023-07-29T02:00:23;16.00;99.90
9542;DHT22;4809;48.224;8.572;2023-07-29T02:02:49;16.00;99.90
9542;DHT22;4809;48.224;8.572;2023-07-29T02:05:15;16.00;99.90
9542;DHT22;4809;48.224;8.572;2023-07-29T02:07:40;16.10;99.90
9542;DHT22;4809;48.224;8.572;2023-07-29T02:10:06;16.00;99.90
9542;DHT22;4809;48.224;8.572;2023-07-29T02:12:33;16.10;99.90
9542;DHT22;4809;48.224;8.572;2023-07-29T02:14:59;16.10;99.90
9542;DHT22;4809;48.224;8.572;2023-07-29T02:17:24;16.10;99.90
9542;DHT22;4809;48.224;8.572;2023-07-29T02:19:51;16.20;99.90
9542;DHT22;4809;48.224;8.572;2023-07-29T02:22:17;16.20;99.90
9542;DHT22;4809;48.224;8.572;2023-07-29T02:24:43;16.20;99.90
9542;DHT22;4809;48.224;8.572;2023-07-29T02:27:09;16.20;99.90
9542;DHT22;4809;48.224;8.572;2023-07-29T02:29:35;16.20;99.90
9542;DHT22;4809;48.224;8.572;2023-07-29T02:32:00;16.20;99.90
9542;DHT22;4809;48.224;8.572;2023-07-29T02:34:26;16.20;99.90
9542;DHT22;4809;48.224;8.572;2023-07-29T02:36:52;16.20;99.90
9542;DHT22;4809;48.224;8.572;2023-07-29T02:39:17;16.20;99.90
9542;DHT22;4809;48.224;8.572;2023-07-29T02:41:43;16.20;99.90
9542;DHT22;4809;48.224;8.572;2023-07-29T02:44:09;16.30;99.90
9542;DHT22;4809;48.224;8.572;2023-07-29T02:46:34;16.30;99.90
9542;DHT22;4809;48.224;8.572;2023-07-29T02:49:02;16.40;99.90
9542;DHT22;4809;48.224;8.572;2023-07-29T02:51:28;16.40;99.90
9542;DHT22;4809;48.224;8.572;2023-07-29T02:53:54;16.40;99.90
9542;DHT22;4809;48.224;8.572;2023-07-29T02:56:19;16.40;99.90
9542;DHT22;4809;48.224;8.572;2023-07-29T02:58:45;16.40;99.90
9542;DHT22;4809;48.224;8.572;2023-07-29T03:01:10;16.40;99.90
9542;DHT22;4809;48.224;8.572;2023-07-29T03:03:36;16.40;99.90
9542;DHT22;4809;48.224;8.572;2023-07-29T03:06:04;16.40;99.90
9542;DHT22;4809;48.224;8.572;2023-07-29T03:08:30;16.40;99.90
9542;DHT22;4809;48.224;8.572;2023-07-29T03:10:56;16.40;99.90
9542;DHT22;4809;48.224;8.572;2023-07-29T03:13:22;16.40;99.90
9542;DHT22;4809;48.224;8.572;2023-07-29T03:15:48;16.50;99.90
9542;DHT22;4809;48.224;8.572;2023-07-29T03:18:14;16.50;99.90
9542;DHT22;4809;48.224;8.572;2023-07-29T03:20:40;16.50;99.90
9542;DHT22;4809;48.224;8.572;2023-07-29T03:23:06;16.50;99.90
9542;DHT22;4809;48.224;8.572;2023-07-29T03:25:32;16.60;99.90
9542;DHT22;4809;48.224;8.572;2023-07-29T03:27:57;16.60;99.90
9542;DHT22;4809;48.224;8.572;2023-07-29T03:30:23;16.60;99.90
9542;DHT22;4809;48.224;8.572;2023-07-29T03:32:49;16.60;99.90
9542;DHT22;4809;48.224;8.572;2023-07-29T03:35:15;16.60;99.90
9542;DHT22;4809;48.224;8.572;2023-07-29T03:37:41;16.60;99.90
9542;DHT22;4809;48.224;8.572;2023-07-29T03:40:07;16.60;99.90
9542;DHT22;4809;48.224;8.572;2023-07-29T03:42:35;16.50;99.90
9542;DHT22;4809;48.224;8.572;2023-07-29T03:45:00;16.50;99.90
9542;DHT22;4809;48.224;8.572;2023-07-29T03:47:26;16.50;99.90
9542;DHT22;4809;48.224;8.572;2023-07-29T03:49:52;16.60;99.90
9542;DHT22;4809;48.224;8.572;2023-07-29T03:52:18;16.60;99.90
9542;DHT22;4809;48.224;8.572;2023-07-29T03:54:44;16.60;99.90
9542;DHT22;4809;48.224;8.572;2023-07-29T03:57:09;16.60;99.90
9542;DHT22;4809;48.224;8.572;2023-07-29T03:59:35;16.60;99.90
9542;DHT22;4809;48.224;8.572;2023-07-29T04:02:00;16.60;99.90
9542;DHT22;4809;48.224;8.572;2023-07-29T04:04:26;16.60;99.90
9542;DHT22;4809;48.224;8.572;2023-07-29T04:06:51;16.50;99.90
9542;DHT22;4809;48.224;8.572;2023-07-29T04:09:17;16.50;99.90
9542;DHT22;4809;48.224;8.572;2023-07-29T04:11:43;16.50;99.90
9542;DHT22;4809;48.224;8.572;2023-07-29T04:14:09;16.50;99.90
9542;DHT22;4809;48.224;8.572;2023-07-29T04:16:34;16.50;99.90
9542;DHT22;4809;48.224;8.572;2023-07-29T04:19:00;16.60;99.90
9542;DHT22;4809;48.224;8.572;2023-07-29T04:21:26;16.70;99.90
9542;DHT22;4809;48.224;8.572;2023-07-29T04:23:51;16.70;99.90
9542;DHT22;4809;48.224;8.572;2023-07-29T04:26:17;16.80;99.90
9542;DHT22;4809;48.224;8.572;2023-07-29T04:28:42;16.90;99.90
9542;DHT22;4809;48.224;8.572;2023-07-29T04:31:08;17.00;99.90
9542;DHT22;4809;48.224;8.572;2023-07-29T04:33:34;17.00;99.90
9542;DHT22;4809;48.224;8.572;2023-07-29T04:35:59;17.00;99.90
9542;DHT22;4809;48.224;8.572;2023-07-29T04:38:31;17.10;99.90
9542;DHT22;4809;48.224;8.572;2023-07-29T04:40:58;17.20;99.90
9542;DHT22;4809;48.224;8.572;2023-07-29T04:43:31;17.20;99.90
9542;DHT22;4809;48.224;8.572;2023-07-29T04:45:56;17.30;99.90
9542;DHT22;4809;48.224;8.572;2023-07-29T04:48:22;17.30;99.90
9542;DHT22;4809;48.224;8.572;2023-07-29T04:50:48;17.30;99.90
9542;DHT22;4809;48.224;8.572;2023-07-29T04:53:14;17.20;99.90
9542;DHT22;4809;48.224;8.572;2023-07-29T04:55:41;17.30;99.90
9542;DHT22;4809;48.224;8.572;2023-07-29T04:58:08;17.30;99.90
9542;DHT22;4809;48.224;8.572;2023-07-29T05:00:33;17.40;99.90
9542;DHT22;4809;48.224;8.572;2023-07-29T05:02:59;17.50;99.90
9542;DHT22;4809;48.224;8.572;2023-07-29T05:05:26;17.50;99.90
9542;DHT22;4809;48.224;8.572;2023-07-29T05:07:52;17.50;99.90
9542;DHT22;4809;48.224;8.572;2023-07-29T05:10:18;17.60;99.90
9542;DHT22;4809;48.224;8.572;2023-07-29T05:12:43;17.60;99.90
9542;DHT22;4809;48.224;8.572;2023-07-29T05:15:09;17.70;99.90
9542;DHT22;4809;48.224;8.572;2023-07-29T05:17:35;17.70;99.90
9542;DHT22;4809;48.224;8.572;2023-07-29T05:20:01;17.80;99.90
9542;DHT22;4809;48.224;8.572;2023-07-29T05:22:26;17.80;99.90
9542;DHT22;4809;48.224;8.572;2023-07-29T05:24:52;17.90;99.90
9542;DHT22;4809;48.224;8.572;2023-07-29T05:27:17;18.10;99.90
9542;DHT22;4809;48.224;8.572;2023-07-29T05:29:43;18.30;99.90
9542;DHT22;4809;48.224;8.572;2023-07-29T05:32:09;18.40;99.90
9542;DHT22;4809;48.224;8.572;2023-07-29T05:34:34;18.50;99.90
9542;DHT22;4809;48.224;8.572;2023-07-29T05:37:00;18.50;99.90
9542;DHT22;4809;48.224;8.572;2023-07-29T05:39:26;18.50;99.90
9542;DHT22;4809;48.224;8.572;2023-07-29T05:41:51;18.50;99.90
9542;DHT22;4809;48.224;8.572;2023-07-29T05:44:17;18.50;99.90
9542;DHT22;4809;48.224;8.572;2023-07-29T05:46:43;18.60;99.90
9542;DHT22;4809;48.224;8.572;2023-07-29T05:49:08;18.70;99.90
9542;DHT22;4809;48.224;8.572;2023-07-29T05:51:34;18.80;99.90
9542;DHT22;4809;48.224;8.572;2023-07-29T05:53:59;18.80;99.90
9542;DHT22;4809;48.224;8.572;2023-07-29T05:56:25;18.80;99.90
9542;DHT22;4809;48.224;8.572;2023-07-29T05:58:51;18.80;99.90
9542;DHT22;4809;48.224;8.572;2023-07-29T06:01:17;19.00;99.90
9542;DHT22;4809;48.224;8.572;2023-07-29T06:03:46;19.20;99.90
9542;DHT22;4809;48.224;8.572;2023-07-29T06:06:12;19.30;99.90
9542;DHT22;4809;48.224;8.572;2023-07-29T06:08:38;19.40;99.90
9542;DHT22;4809;48.224;8.572;2023-07-29T06:11:03;19.50;99.90
9542;DHT22;4809;48.224;8.572;2023-07-29T06:13:32;19.50;99.90
9542;DHT22;4809;48.224;8.572;2023-07-29T06:15:57;19.30;99.90
9542;DHT22;4809;48.224;8.572;2023-07-29T06:18:24;19.10;99.90
9542;DHT22;4809;48.224;8.572;2023-07-29T06:20:50;19.00;99.90
9542;DHT22;4809;48.224;8.572;2023-07-29T06:23:16;18.80;99.90
9542;DHT22;4809;48.224;8.572;2023-07-29T06:25:41;18.70;99.90
9542;DHT22;4809;48.224;8.572;2023-07-29T06:28:08;18.60;99.90
9542;DHT22;4809;48.224;8.572;2023-07-29T06:30:33;18.60;99.90
9542;DHT22;4809;48.224;8.572;2023-07-29T06:32:59;18.60;99.90
9542;DHT22;4809;48.224;8.572;2023-07-29T06:35:25;18.60;99.90
9542;DHT22;4809;48.224;8.572;2023-07-29T06:37:50;18.50;99.90
9542;DHT22;4809;48.224;8.572;2023-07-29T06:40:16;18.40;99.90
9542;DHT22;4809;48.224;8.572;2023-07-29T06:42:42;18.40;99.90
9542;DHT22;4809;48.224;8.572;2023-07-29T06:45:08;18.40;99.90
9542;DHT22;4809;48.224;8.572;2023-07-29T06:47:33;18.50;99.90
9542;DHT22;4809;48.224;8.572;2023-07-29T06:49:59;18.50;99.90
9542;DHT22;4809;48.224;8.572;2023-07-29T06:52:25;18.60;99.90
9542;DHT22;4809;48.224;8.572;2023-07-29T06:54:50;18.70;99.90
9542;DHT22;4809;48.224;8.572;2023-07-29T06:57:16;18.90;99.90
9542;DHT22;4809;48.224;8.572;2023-07-29T06:59:42;19.10;99.90
9542;DHT22;4809;48.224;8.572;2023-07-29T07:02:08;19.20;99.90
9542;DHT22;4809;48.224;8.572;2023-07-29T07:04:33;19.20;99.90
9542;DHT22;4809;48.224;8.572;2023-07-29T07:06:59;19.20;99.90
9542;DHT22;4809;48.224;8.572;2023-07-29T07:09:25;19.10;99.90
9542;DHT22;4809;48.224;8.572;2023-07-29T07:11:50;19.00;99.90
9542;DHT22;4809;48.224;8.572;2023-07-29T07:14:16;18.90;99.90
9542;DHT22;4809;48.224;8.572;2023-07-29T07:16:42;18.90;99.90
9542;DHT22;4809;48.224;8.572;2023-07-29T07:19:07;18.80;99.90
9542;DHT22;4809;48.224;8.572;2023-07-29T07:21:33;18.70;99.90
9542;DHT22;4809;48.224;8.572;2023-07-29T07:23:58;18.60;99.90
9542;DHT22;4809;48.224;8.572;2023-07-29T07:26:24;18.50;99.90
9542;DHT22;4809;48.224;8.572;2023-07-29T07:28:50;18.50;99.90
9542;DHT22;4809;48.224;8.572;2023-07-29T07:31:17;18.50;99.90
9542;DHT22;4809;48.224;8.572;2023-07-29T07:33:42;18.40;99.90
9542;DHT22;4809;48.224;8.572;2023-07-29T07:36:09;18.30;99.90
9542;DHT22;4809;48.224;8.572;2023-07-29T07:38:34;18.30;99.90
9542;DHT22;4809;48.224;8.572;2023-07-29T07:41:00;18.40;99.90
9542;DHT22;4809;48.224;8.572;2023-07-29T07:43:27;18.50;99.90
9542;DHT22;4809;48.224;8.572;2023-07-29T07:45:58;18.60;99.90
9542;DHT22;4809;48.224;8.572;2023-07-29T07:48:25;18.80;99.90
9542;DHT22;4809;48.224;8.572;2023-07-29T07:50:51;19.10;99.90
9542;DHT22;4809;48.224;8.572;2023-07-29T07:53:16;19.80;99.90
9542;DHT22;4809;48.224;8.572;2023-07-29T07:55:42;20.00;99.90
9542;DHT22;4809;48.224;8.572;2023-07-29T07:58:07;20.10;99.90
9542;DHT22;4809;48.224;8.572;2023-07-29T08:00:33;20.20;99.90
9542;DHT22;4809;48.224;8.572;2023-07-29T08:02:59;20.20;99.90
9542;DHT22;4809;48.224;8.572;2023-07-29T08:05:24;20.40;99.90
9542;DHT22;4809;48.224;8.572;2023-07-29T08:07:50;20.50;99.90
9542;DHT22;4809;48.224;8.572;2023-07-29T08:10:15;20.50;99.90
9542;DHT22;4809;48.224;8.572;2023-07-29T08:12:41;21.00;99.90
9542;DHT22;4809;48.224;8.572;2023-07-29T08:15:07;21.40;99.90
9542;DHT22;4809;48.224;8.572;2023-07-29T08:17:32;21.70;99.90
9542;DHT22;4809;48.224;8.572;2023-07-29T08:19:58;21.90;99.90
9542;DHT22;4809;48.224;8.572;2023-07-29T08:22:24;22.00;99.90
9542;DHT22;4809;48.224;8.572;2023-07-29T08:24:49;22.10;99.90
9542;DHT22;4809;48.224;8.572;2023-07-29T08:27:15;22.10;99.90
9542;DHT22;4809;48.224;8.572;2023-07-29T08:29:41;22.30;99.90
9542;DHT22;4809;48.224;8.572;2023-07-29T08:32:07;22.30;99.90
9542;DHT22;4809;48.224;8.572;2023-07-29T08:34:33;22.30;99.90
9542;DHT22;4809;48.224;8.572;2023-07-29T08:36:58;22.50;99.90
9542;DHT22;4809;48.224;8.572;2023-07-29T08:39:25;22.70;99.90
9542;DHT22;4809;48.224;8.572;2023-07-29T08:41:54;22.70;99.90
9542;DHT22;4809;48.224;8.572;2023-07-29T08:44:23;22.60;99.90
9542;DHT22;4809;48.224;8.572;2023-07-29T08:46:49;22.40;99.90
9542;DHT22;4809;48.224;8.572;2023-07-29T08:49:16;22.50;99.90
9542;DHT22;4809;48.224;8.572;2023-07-29T08:51:46;22.40;99.90
9542;DHT22;4809;48.224;8.572;2023-07-29T08:54:13;22.50;99.90
9542;DHT22;4809;48.224;8.572;2023-07-29T08:56:41;22.70;99.90
9542;DHT22;4809;48.224;8.572;2023-07-29T08:59:08;22.70;99.90
9542;DHT22;4809;48.224;8.572;2023-07-29T09:01:34;22.70;99.90
9542;DHT22;4809;48.224;8.572;2023-07-29T09:04:00;22.50;99.90
9542;DHT22;4809;48.224;8.572;2023-07-29T09:06:26;22.10;99.90
9542;DHT22;4809;48.224;8.572;2023-07-29T09:08:54;21.80;99.90
9542;DHT22;4809;48.224;8.572;2023-07-29T09:11:22;21.50;99.90
9542;DHT22;4809;48.224;8.572;2023-07-29T09:13:48;21.30;99.90
9542;DHT22;4809;48.224;8.572;2023-07-29T09:16:13;21.20;99.90
9542;DHT22;4809;48.224;8.572;2023-07-29T09:18:39;21.00;99.90
9542;DHT22;4809;48.224;8.572;2023-07-29T09:21:06;20.80;99.90
9542;DHT22;4809;48.224;8.572;2023-07-29T09:23:41;20.80;99.90
9542;DHT22;4809;48.224;8.572;2023-07-29T09:26:07;20.70;99.90
9542;DHT22;4809;48.224;8.572;2023-07-29T09:28:35;20.70;99.90
9542;DHT22;4809;48.224;8.572;2023-07-29T09:31:01;20.80;99.90
9542;DHT22;4809;48.224;8.572;2023-07-29T09:33:28;21.20;99.90
9542;DHT22;4809;48.224;8.572;2023-07-29T09:35:54;21.70;99.90
9542;DHT22;4809;48.224;8.572;2023-07-29T09:38:29;22.10;99.90
9542;DHT22;4809;48.224;8.572;2023-07-29T09:40:56;22.60;99.90
9542;DHT22;4809;48.224;8.572;2023-07-29T09:43:29;23.10;99.90
9542;DHT22;4809;48.224;8.572;2023-07-29T09:45:55;23.30;99.90
9542;DHT22;4809;48.224;8.572;2023-07-29T09:48:24;23.60;99.90
9542;DHT22;4809;48.224;8.572;2023-07-29T09:50:50;23.80;99.90
9542;DHT22;4809;48.224;8.572;2023-07-29T09:53:16;24.00;99.90
9542;DHT22;4809;48.224;8.572;2023-07-29T09:55:47;24.30;99.90
9542;DHT22;4809;48.224;8.572;2023-07-29T09:58:14;24.30;99.90
9542;DHT22;4809;48.224;8.572;2023-07-29T10:00:39;24.30;99.90
9542;DHT22;4809;48.224;8.572;2023-07-29T10:03:06;24.00;99.90
9542;DHT22;4809;48.224;8.572;2023-07-29T10:05:33;23.70;99.90
9542;DHT22;4809;48.224;8.572;2023-07-29T10:08:01;23.70;99.90
9542;DHT22;4809;48.224;8.572;2023-07-29T10:10:27;23.80;99.90
9542;DHT22;4809;48.224;8.572;2023-07-29T10:12:54;23.90;99.90
9542;DHT22;4809;48.224;8.572;2023-07-29T10:15:20;23.80;99.90
9542;DHT22;4809;48.224;8.572;2023-07-29T10:17:46;23.70;99.90
9542;DHT22;4809;48.224;8.572;2023-07-29T10:20:12;23.80;99.90
9542;DHT22;4809;48.224;8.572;2023-07-29T10:22:40;23.90;99.90
9542;DHT22;4809;48.224;8.572;2023-07-29T10:25:17;24.20;99.90
9542;DHT22;4809;48.224;8.572;2023-07-29T10:27:56;24.70;99.90
9542;DHT22;4809;48.224;8.572;2023-07-29T10:30:27;25.00;99.90
9542;DHT22;4809;48.224;8.572;2023-07-29T10:32:54;25.50;99.90
9542;DHT22;4809;48.224;8.572;2023-07-29T10:35:22;25.60;99.90
9542;DHT22;4809;48.224;8.572;2023-07-29T10:37:48;25.70;99.90
9542;DHT22;4809;48.224;8.572;2023-07-29T10:40:16;25.70;99.90
9542;DHT22;4809;48.224;8.572;2023-07-29T10:43:02;25.70;99.90
9542;DHT22;4809;48.224;8.572;2023-07-29T10:45:36;25.30;99.90
9542;DHT22;4809;48.224;8.572;2023-07-29T10:51:26;24.90;99.90
9542;DHT22;4809;48.224;8.572;2023-07-29T10:54:03;25.00;99.90
9542;DHT22;4809;48.224;8.572;2023-07-29T10:56:34;25.00;99.90
9542;DHT22;4809;48.224;8.572;2023-07-29T11:01:44;24.50;99.90
9542;DHT22;4809;48.224;8.572;2023-07-29T11:04:25;24.30;99.90
9542;DHT22;4809;48.224;8.572;2023-07-29T11:09:53;25.10;99.90
9542;DHT22;4809;48.224;8.572;2023-07-29T11:17:43;24.90;99.90
9542;DHT22;4809;48.224;8.572;2023-07-29T11:20:09;24.70;99.90
9542;DHT22;4809;48.224;8.572;2023-07-29T11:22:36;24.80;99.90
9542;DHT22;4809;48.224;8.572;2023-07-29T11:25:02;24.50;99.90
9542;DHT22;4809;48.224;8.572;2023-07-29T11:27:28;24.40;99.90
9542;DHT22;4809;48.224;8.572;2023-07-29T11:30:01;24.20;99.90
9542;DHT22;4809;48.224;8.572;2023-07-29T11:32:27;24.20;99.90
9542;DHT22;4809;48.224;8.572;2023-07-29T11:34:53;24.20;99.90
9542;DHT22;4809;48.224;8.572;2023-07-29T11:37:19;24.10;99.90
9542;DHT22;4809;48.224;8.572;2023-07-29T11:39:46;24.10;99.90
9542;DHT22;4809;48.224;8.572;2023-07-29T11:42:12;24.20;99.90
9542;DHT22;4809;48.224;8.572;2023-07-29T11:44:38;24.10;99.90
9542;DHT22;4809;48.224;8.572;2023-07-29T11:47:08;24.20;99.90
9542;DHT22;4809;48.224;8.572;2023-07-29T11:49:34;24.20;99.90
9542;DHT22;4809;48.224;8.572;2023-07-29T11:52:01;24.20;99.90
9542;DHT22;4809;48.224;8.572;2023-07-29T11:54:27;24.40;99.90
9542;DHT22;4809;48.224;8.572;2023-07-29T11:56:53;24.70;99.90
9542;DHT22;4809;48.224;8.572;2023-07-29T11:59:19;25.00;99.90
9542;DHT22;4809;48.224;8.572;2023-07-29T12:01:45;24.90;99.90
9542;DHT22;4809;48.224;8.572;2023-07-29T12:04:12;24.90;99.90
9542;DHT22;4809;48.224;8.572;2023-07-29T12:06:38;25.60;99.90
9542;DHT22;4809;48.224;8.572;2023-07-29T12:09:04;26.20;99.90
9542;DHT22;4809;48.224;8.572;2023-07-29T12:11:30;26.40;99.90
9542;DHT22;4809;48.224;8.572;2023-07-29T12:13:56;26.60;99.90
9542;DHT22;4809;48.224;8.572;2023-07-29T12:16:21;26.60;99.90
9542;DHT22;4809;48.224;8.572;2023-07-29T12:18:47;26.40;99.90
9542;DHT22;4809;48.224;8.572;2023-07-29T12:21:15;25.90;99.90
9542;DHT22;4809;48.224;8.572;2023-07-29T12:23:40;25.70;99.90
9542;DHT22;4809;48.224;8.572;2023-07-29T12:26:06;25.60;99.90
9542;DHT22;4809;48.224;8.572;2023-07-29T12:28:32;25.70;99.90
9542;DHT22;4809;48.224;8.572;2023-07-29T12:30:58;25.70;99.90
9542;DHT22;4809;48.224;8.572;2023-07-29T12:35:57;25.70;99.90
9542;DHT22;4809;48.224;8.572;2023-07-29T12:38:22;25.80;99.90
9542;DHT22;4809;48.224;8.572;2023-07-29T12:40:48;25.90;99.90
9542;DHT22;4809;48.224;8.572;2023-07-29T12:43:13;26.10;99.90
9542;DHT22;4809;48.224;8.572;2023-07-29T12:45:39;25.80;99.90
9542;DHT22;4809;48.224;8.572;2023-07-29T12:48:07;25.80;99.90
9542;DHT22;4809;48.224;8.572;2023-07-29T12:50:32;25.60;99.90
9542;DHT22;4809;48.224;8.572;2023-07-29T12:52:58;25.50;99.90
9542;DHT22;4809;48.224;8.572;2023-07-29T12:55:24;25.70;99.90
9542;DHT22;4809;48.224;8.572;2023-07-29T12:57:50;25.80;99.90
9542;DHT22;4809;48.224;8.572;2023-07-29T13:00:16;26.00;99.90
9542;DHT22;4809;48.224;8.572;2023-07-29T13:02:41;25.70;99.90
9542;DHT22;4809;48.224;8.572;2023-07-29T13:05:10;25.60;99.90
9542;DHT22;4809;48.224;8.572;2023-07-29T13:07:42;25.30;99.90
9542;DHT22;4809;48.224;8.572;2023-07-29T13:10:09;25.00;99.90
9542;DHT22;4809;48.224;8.572;2023-07-29T13:12:35;24.80;99.90
9542;DHT22;4809;48.224;8.572;2023-07-29T13:15:01;24.60;99.90
9542;DHT22;4809;48.224;8.572;2023-07-29T13:17:27;24.50;99.90
9542;DHT22;4809;48.224;8.572;2023-07-29T13:19:53;24.40;99.90
9542;DHT22;4809;48.224;8.572;2023-07-29T13:22:20;24.30;99.90
9542;DHT22;4809;48.224;8.572;2023-07-29T13:24:46;24.30;99.90
9542;DHT22;4809;48.224;8.572;2023-07-29T13:27:12;24.20;99.90
9542;DHT22;4809;48.224;8.572;2023-07-29T13:29:38;24.20;99.90
9542;DHT22;4809;48.224;8.572;2023-07-29T13:32:04;24.10;99.90
9542;DHT22;4809;48.224;8.572;2023-07-29T13:34:30;24.10;99.90
9542;DHT22;4809;48.224;8.572;2023-07-29T13:36:56;24.10;99.90
9542;DHT22;4809;48.224;8.572;2023-07-29T13:39:21;24.20;99.90
9542;DHT22;4809;48.224;8.572;2023-07-29T13:41:47;24.30;99.90
9542;DHT22;4809;48.224;8.572;2023-07-29T13:44:13;24.50;99.90
9542;DHT22;4809;48.224;8.572;2023-07-29T13:46:38;24.40;99.90
9542;DHT22;4809;48.224;8.572;2023-07-29T13:49:04;24.30;99.90
9542;DHT22;4809;48.224;8.572;2023-07-29T13:51:29;24.20;99.90
9542;DHT22;4809;48.224;8.572;2023-07-29T13:53:55;24.00;99.90
9542;DHT22;4809;48.224;8.572;2023-07-29T13:56:22;23.90;99.90
9542;DHT22;4809;48.224;8.572;2023-07-29T13:58:47;23.80;99.90
9542;DHT22;4809;48.224;8.572;2023-07-29T14:01:13;23.90;99.90
9542;DHT22;4809;48.224;8.572;2023-07-29T14:03:39;24.30;99.90
9542;DHT22;4809;48.224;8.572;2023-07-29T14:06:04;24.80;99.90
9542;DHT22;4809;48.224;8.572;2023-07-29T14:08:30;25.10;99.90
9542;DHT22;4809;48.224;8.572;2023-07-29T14:10:56;25.00;99.90
9542;DHT22;4809;48.224;8.572;2023-07-29T14:13:21;24.70;99.90
9542;DHT22;4809;48.224;8.572;2023-07-29T14:15:47;24.30;99.90
9542;DHT22;4809;48.224;8.572;2023-07-29T14:18:12;24.00;99.90
9542;DHT22;4809;48.224;8.572;2023-07-29T14:20:38;23.70;99.90
9542;DHT22;4809;48.224;8.572;2023-07-29T14:23:04;23.40;99.90
9542;DHT22;4809;48.224;8.572;2023-07-29T14:25:30;23.10;99.90
9542;DHT22;4809;48.224;8.572;2023-07-29T14:27:56;22.70;99.90
9542;DHT22;4809;48.224;8.572;2023-07-29T14:30:21;22.40;99.90
9542;DHT22;4809;48.224;8.572;2023-07-29T14:32:49;22.10;99.90
9542;DHT22;4809;48.224;8.572;2023-07-29T14:35:18;21.80;99.90
9542;DHT22;4809;48.224;8.572;2023-07-29T14:37:43;21.60;99.90
9542;DHT22;4809;48.224;8.572;2023-07-29T14:40:09;21.50;99.90
9542;DHT22;4809;48.224;8.572;2023-07-29T14:42:35;21.40;99.90
9542;DHT22;4809;48.224;8.572;2023-07-29T14:45:00;21.40;99.90
9542;DHT22;4809;48.224;8.572;2023-07-29T14:47:26;21.30;99.90
9542;DHT22;4809;48.224;8.572;2023-07-29T14:49:52;21.20;99.90
9542;DHT22;4809;48.224;8.572;2023-07-29T14:52:17;21.10;99.90
9542;DHT22;4809;48.224;8.572;2023-07-29T14:54:43;21.00;99.90
9542;DHT22;4809;48.224;8.572;2023-07-29T14:57:10;21.00;99.90
9542;DHT22;4809;48.224;8.572;2023-07-29T14:59:35;20.90;99.90
9542;DHT22;4809;48.224;8.572;2023-07-29T15:02:01;20.80;99.90
9542;DHT22;4809;48.224;8.572;2023-07-29T15:04:27;20.80;99.90
9542;DHT22;4809;48.224;8.572;2023-07-29T15:06:52;20.80;99.90
9542;DHT22;4809;48.224;8.572;2023-07-29T15:09:18;20.90;99.90
9542;DHT22;4809;48.224;8.572;2023-07-29T15:11:43;21.00;99.90
9542;DHT22;4809;48.224;8.572;2023-07-29T15:14:09;21.10;99.90
9542;DHT22;4809;48.224;8.572;2023-07-29T15:16:35;21.20;99.90
9542;DHT22;4809;48.224;8.572;2023-07-29T15:19:02;21.20;99.90
9542;DHT22;4809;48.224;8.572;2023-07-29T15:21:29;21.30;99.90
9542;DHT22;4809;48.224;8.572;2023-07-29T15:23:55;21.50;99.90
9542;DHT22;4809;48.224;8.572;2023-07-29T15:26:20;21.60;99.90
9542;DHT22;4809;48.224;8.572;2023-07-29T15:28:46;21.70;99.90
9542;DHT22;4809;48.224;8.572;2023-07-29T15:31:12;22.10;99.90
9542;DHT22;4809;48.224;8.572;2023-07-29T15:33:38;22.60;99.90
9542;DHT22;4809;48.224;8.572;2023-07-29T15:36:04;23.00;99.90
9542;DHT22;4809;48.224;8.572;2023-07-29T15:38:30;23.30;99.90
9542;DHT22;4809;48.224;8.572;2023-07-29T15:40:56;23.30;99.90
9542;DHT22;4809;48.224;8.572;2023-07-29T15:43:22;23.20;99.90
9542;DHT22;4809;48.224;8.572;2023-07-29T15:45:48;22.80;99.90
9542;DHT22;4809;48.224;8.572;2023-07-29T15:48:13;22.50;99.90
9542;DHT22;4809;48.224;8.572;2023-07-29T15:50:39;22.20;99.90
9542;DHT22;4809;48.224;8.572;2023-07-29T15:53:05;22.10;99.90
9542;DHT22;4809;48.224;8.572;2023-07-29T15:55:30;21.90;99.90
9542;DHT22;4809;48.224;8.572;2023-07-29T15:57:56;21.90;99.90
9542;DHT22;4809;48.224;8.572;2023-07-29T16:00:22;21.80;99.90
9542;DHT22;4809;48.224;8.572;2023-07-29T16:02:48;21.80;99.90
9542;DHT22;4809;48.224;8.572;2023-07-29T16:05:14;21.80;99.90
9542;DHT22;4809;48.224;8.572;2023-07-29T16:07:40;21.70;99.90
9542;DHT22;4809;48.224;8.572;2023-07-29T16:10:06;21.60;99.90
9542;DHT22;4809;48.224;8.572;2023-07-29T16:12:32;21.40;99.90
9542;DHT22;4809;48.224;8.572;2023-07-29T16:15:05;21.20;99.90
9542;DHT22;4809;48.224;8.572;2023-07-29T16:17:31;21.10;99.90
9542;DHT22;4809;48.224;8.572;2023-07-29T16:19:58;20.90;99.90